• Join FlightAware (Why Join?)
  • Login
  • US Flag GB Flag 
16:23 EDT


 

Airport Tracker/Info


-or-


 

Live Flight TrackerFlight Track Log ✈ AMF1026 ✈ 24-Apr-2013 ✈ KALB - KCVG

Flight Track Log - Related Links

Times and Time Zones

All times are in EDT time to prevent confusion due to time zone crossing. See the AMF1026 flight status page for this flight to view local times or setup timezone preferences in your user account.

Time Position Orientation Groundspeed Altitude Reporting Facility
EDT Latitude Longitude Course Direction KTS MPH feet Rate Location/Type
20:32 42.7339 -73.8167 216° Southwest 137 158 900  Level Boston Center
20:33 42.7000 -73.8497 216° Southwest 171 197 2,700 1,680 Climbing Boston Center
20:34 42.7222 -73.9181 294° West 211 243 4,400 1,560 Climbing Boston Center
20:35 42.7464 -73.9781 299° West 197 227 5,700 1,320 Climbing Boston Center
20:36 42.7497 -74.0461 274° West 203 234 7,000 1,260 Climbing Boston Center
20:37 42.7467 -74.1081 266° West 191 220 8,300 1,320 Climbing Boston Center
20:38 42.7497 -74.1789 273° West 180 207 9,700 1,200 Climbing Boston Center
20:39 42.7489 -74.2356 269° West 180 207 10,800 1,140 Climbing Boston Center
20:40 42.7436 -74.3031 264° West 175 201 12,000 960 Climbing Boston Center
20:42 42.7261 -74.3536 245° Southwest 169 194 13,000 1,080 Climbing Boston Center
20:43 42.6978 -74.4261 242° Southwest 169 194 14,400 1,200 Climbing Boston Center
20:44 42.6803 -74.4764 245° Southwest 169 194 15,400 780 Climbing Boston Center
20:45 42.6583 -74.5350 243° Southwest 164 189 16,000 300 Climbing Boston Center
20:46 42.6322 -74.5933 239° Southwest 185 213 16,000  Level Boston Center
20:47 42.6017 -74.6656 240° Southwest 201 231 16,000  Level Boston Center
20:48 42.5878 -74.7328 254° West 208 239 16,000  Level Boston Center
20:49 42.5756 -74.8197 259° West 214 246 16,000  Level Boston Center
20:50 42.5656 -74.8928 259° West 214 246 16,000  Level Boston Center
20:51 42.5558 -74.9656 260° West 209 241 16,000  Level Boston Center
20:52 42.5458 -75.0328 259° West 203 234 16,000  Level Boston Center
20:53 42.5339 -75.1028 257° West 198 228 16,000  Level Boston Center
20:54 42.5217 -75.1728 257° West 198 228 16,000  Level Boston Center
20:55 42.5014 -75.2422 248° West 198 228 16,000  Level Boston Center
20:56 42.4706 -75.3000 234° Southwest 198 228 16,000  Level Boston Center
20:57 42.4381 -75.3519 230° Southwest 198 228 16,000  Level Boston Center
20:58 42.4072 -75.4125 235° Southwest 193 222 16,000  Level Boston Center
20:59 42.3806 -75.4758 240° Southwest 193 222 16,000  Level Boston Center
21:01 42.3178 -75.6167 239° Southwest 193 222 16,000  Level New York Center
21:02 42.2883 -75.6761 236° Southwest 193 222 16,000  Level New York Center
21:03 42.2608 -75.7358 238° Southwest 193 222 16,000  Level New York Center
21:04 42.2353 -75.8011 242° Southwest 198 228 16,000  Level New York Center
21:05 42.2097 -75.8661 242° Southwest 198 228 16,000  Level New York Center
21:06 42.1817 -75.9311 240° Southwest 198 228 16,000  Level New York Center
21:07 42.1561 -75.9936 241° Southwest 198 228 16,000  Level New York Center
21:08 42.1283 -76.0611 241° Southwest 198 228 16,000  Level New York Center
21:09 42.0983 -76.1231 237° Southwest 198 228 16,000  Level New York Center
21:10 42.0725 -76.1881 242° Southwest 198 228 16,000  Level New York Center
21:11 42.0489 -76.2531 244° Southwest 198 228 16,000  Level New York Center
21:12 42.0269 -76.3183 246° West 193 222 16,000  Level New York Center
21:13 42.0053 -76.3836 246° West 193 222 16,000  Level New York Center
21:14 41.9853 -76.4517 248° West 193 222 16,100  Climbing New York Center
21:15 41.9631 -76.5222 247° West 198 228 16,100  Level New York Center
21:16 41.9414 -76.5872 246° West 198 228 16,100  Level New York Center
21:17 41.9147 -76.6631 245° Southwest 198 228 16,100  Level New York Center
21:18 41.8806 -76.7183 230° Southwest 198 228 16,100  Level New York Center
21:19 41.8628 -76.7836 250° West 193 222 16,100  Level New York Center
21:20 41.8531 -76.8525 259° West 193 222 16,100  Level New York Center
21:22 41.8183 -76.9914 251° West 184 212 16,100 -60 Level Cleveland Center
21:23 41.8017 -77.0564 251° West 190 219 16,000 -60 Descending Cleveland Center
21:24 41.7828 -77.1217 249° West 190 219 16,000  Level Cleveland Center
21:25 41.7642 -77.1950 251° West 190 219 16,000  Level Cleveland Center
21:26 41.7472 -77.2600 251° West 190 219 16,000  Level Cleveland Center
21:27 41.7303 -77.3275 251° West 190 219 16,000  Level Cleveland Center
21:29 41.6960 -77.4227 244° Southwest  Level FlightAware Approximate
21:29 41.6967 -77.4656 244° Southwest 190 219 16,000  Level Cleveland Center
21:30 41.6778 -77.5361 250° West 190 219 16,200 60 Climbing Cleveland Center
21:31 41.6608 -77.6064 252° West 190 219 16,200  Level Cleveland Center
21:32 41.6417 -77.6767 250° West 195 224 16,200  Level Cleveland Center
21:33 41.6247 -77.7469 252° West 195 224 16,200  Level Cleveland Center
21:34 41.6033 -77.8117 246° West 200 230 16,200  Level Cleveland Center
21:35 41.5736 -77.8742 238° Southwest 200 230 16,200  Level Cleveland Center
21:36 41.5417 -77.9308 233° Southwest 200 230 16,200  Level Cleveland Center
21:37 41.5117 -77.9847 233° Southwest 195 224 16,200  Level Cleveland Center
21:38 41.4858 -78.0469 241° Southwest 200 230 16,200  Level Cleveland Center
21:39 41.4664 -78.1142 249° West 200 230 16,200  Level Cleveland Center
21:40 41.4469 -78.1786 248° West 195 224 16,200 -120 Level Cleveland Center
21:41 41.4253 -78.2431 246° West 195 224 16,000 -120 Descending Cleveland Center
21:42 41.4058 -78.3075 248° West 195 224 16,000  Level Cleveland Center
21:43 41.3864 -78.3717 248° West 195 224 16,000  Level Cleveland Center
21:44 41.3708 -78.4306 251° West 195 224 16,000  Level Cleveland Center
21:45 41.3489 -78.4919 245° Southwest 195 224 16,000  Level Cleveland Center
21:46 41.3272 -78.5536 245° Southwest 195 224 16,000  Level Cleveland Center
21:47 41.3053 -78.6150 245° Southwest 189 217 16,000  Level Cleveland Center
21:48 41.2853 -78.6764 247° West 189 217 16,000  Level Cleveland Center
21:49 41.2656 -78.7406 248° West 184 212 16,000  Level Cleveland Center
21:50 41.2500 -78.8072 253° West 184 212 16,000  Level Cleveland Center
21:51 41.2322 -78.8742 251° West 190 219 16,000  Level Cleveland Center
21:52 41.2144 -78.9464 252° West 190 219 16,000  Level Cleveland Center
21:53 41.1986 -79.0019 249° West 190 219 16,000  Level Cleveland Center
21:54 41.1808 -79.0686 251° West 190 219 16,000  Level Cleveland Center
21:55 41.1628 -79.1378 251° West 190 219 16,000  Level Cleveland Center
21:56 41.1469 -79.2044 253° West 190 219 16,000  Level Cleveland Center
21:57 41.1292 -79.2792 252° West 190 219 16,000  Level Cleveland Center
21:58 41.1153 -79.3400 253° West 196 226 16,000  Level Cleveland Center
21:59 41.0994 -79.4094 253° West 196 226 16,000  Level Cleveland Center
22:00 41.0833 -79.4758 252° West 191 220 16,100  Climbing Cleveland Center
22:01 41.0694 -79.5419 254° West 191 220 16,100  Level Cleveland Center
22:02 41.0511 -79.6083 250° West 191 220 16,100  Level Cleveland Center
22:03 41.0350 -79.6719 251° West 191 220 16,100  Level Cleveland Center
22:04 41.0167 -79.7356 249° West 191 220 16,100  Level Cleveland Center
22:05 40.9942 -79.7964 244° Southwest 191 220 16,100  Level Cleveland Center
22:06 40.9697 -79.8600 243° Southwest 191 220 16,100  Level Cleveland Center
22:07 40.9469 -79.9206 244° Southwest 196 226 16,100  Level Cleveland Center
22:08 40.9203 -79.9814 240° Southwest 196 226 16,100  Level Cleveland Center
22:09 40.8978 -80.0447 245° Southwest 196 226 16,100 -60 Level Cleveland Center
22:10 40.8731 -80.1053 242° Southwest 196 226 16,000 -60 Descending Cleveland Center
22:11 40.8419 -80.1742 239° Southwest 196 226 16,000  Level Cleveland Center
22:12 40.8192 -80.2375 245° Southwest 196 226 16,000  Level Cleveland Center
22:13 40.7881 -80.2978 236° Southwest 202 232 16,000  Level Cleveland Center
22:14 40.7550 -80.3611 235° Southwest 208 239 16,000  Level Cleveland Center
22:15 40.7236 -80.4214 236° Southwest 208 239 16,000  Level Cleveland Center
22:16 40.6925 -80.4817 236° Southwest 208 239 16,000  Level Cleveland Center
22:17 40.6633 -80.5367 235° Southwest 214 246 16,000  Level Cleveland Center
22:18 40.6322 -80.5967 236° Southwest 214 246 16,000  Level Cleveland Center
22:19 40.6008 -80.6569 236° Southwest 207 238 16,000  Level Cleveland Center
22:20 40.5653 -80.7169 232° Southwest 202 232 16,000  Level Cleveland Center
22:21 40.5319 -80.7769 234° Southwest 202 232 16,000  Level Cleveland Center
22:22 40.5006 -80.8369 235° Southwest 202 232 16,000  Level Cleveland Center
22:23 40.4692 -80.8997 237° Southwest 202 232 16,000  Level Cleveland Center
22:24 40.4333 -80.9622 233° Southwest 202 232 16,000  Level Cleveland Center
22:25 40.4019 -81.0247 237° Southwest 207 238 16,000  Level Cleveland Center
22:26 40.3703 -81.0844 235° Southwest 212 244 16,000  Level Cleveland Center
22:27 40.3367 -81.1497 236° Southwest 212 244 16,000  Level Cleveland Center
22:28 40.3053 -81.2092 235° Southwest 212 244 16,000  Level Cleveland Center
22:29 40.2714 -81.2714 234° Southwest 212 244 16,000  Level Cleveland Center
22:31 40.2086 -81.3922 236° Southwest 210 242 16,000  Level Indianapolis Center
22:32 40.1744 -81.4556 235° Southwest 211 243 16,000  Level Indianapolis Center
22:33 40.1408 -81.5186 235° Southwest 210 242 16,000  Level Indianapolis Center
22:34 40.1058 -81.5803 233° Southwest 210 242 16,000  Level Indianapolis Center
22:35 40.0650 -81.6542 234° Southwest 213 245 16,000  Level Indianapolis Center
22:36 40.0308 -81.7181 235° Southwest 213 245 16,000  Level Indianapolis Center
22:37 39.9989 -81.7772 235° Southwest 211 243 16,000  Level Indianapolis Center
22:38 39.9625 -81.8392 233° Southwest 213 245 16,000  Level Indianapolis Center
22:39 39.9283 -81.9036 235° Southwest 215 247 16,000  Level Indianapolis Center
22:40 39.9092 -81.9750 251° West 210 242 16,000  Level Indianapolis Center
22:41 39.8939 -82.0481 255° West 210 242 16,000  Level Indianapolis Center
22:42 39.8739 -82.1208 250° West 211 243 16,000  Level Indianapolis Center
22:43 39.8539 -82.1928 250° West 210 242 16,000  Level Indianapolis Center
22:44 39.8333 -82.2664 250° West 213 245 16,000  Level Indianapolis Center
22:45 39.8122 -82.3403 250° West 216 249 16,000  Level Indianapolis Center
22:46 39.7939 -82.4133 252° West 209 241 16,000  Level Indianapolis Center
22:47 39.7742 -82.4894 251° West 218 251 16,000  Level Indianapolis Center
22:48 39.7547 -82.5636 251° West 217 250 16,000  Level Indianapolis Center
22:49 39.7344 -82.6386 251° West 219 252 16,000 -60 Level Indianapolis Center
22:50 39.7150 -82.7147 252° West 220 253 15,900 -60 Descending Indianapolis Center
22:51 39.6969 -82.7911 253° West 221 254 15,900  Level Indianapolis Center
22:53 39.6767 -82.8800 254° West 219 252 15,900  Level Indianapolis Center
22:54 39.6581 -82.9578 253° West 223 257 15,900 -60 Level Indianapolis Center
22:55 39.6389 -83.0344 252° West 223 257 15,800 -780 Descending Indianapolis Center
22:56 39.6183 -83.1117 251° West 224 258 14,400 -1,140 Descending Indianapolis Center
22:57 39.5997 -83.1889 253° West 222 255 13,500 -840 Descending Indianapolis Center
22:58 39.5836 -83.2642 255° West 216 249 12,700 -960 Descending Indianapolis Center
22:59 39.5628 -83.3392 250° West 219 252 11,600 -900 Descending Indianapolis Center
23:00 39.5408 -83.4153 250° West 223 257 10,900 -360 Descending Indianapolis Center
23:01 39.5222 -83.4881 252° West 211 243 10,900  Level Indianapolis Center
23:02 39.4950 -83.5675 246° West 229 264 11,000  Climbing Indianapolis Center
23:03 39.4694 -83.6525 249° West 246 283 11,000  Level Indianapolis Center
23:04 39.4450 -83.7383 250° West 251 289 11,000  Level Indianapolis Center
23:05 39.4144 -83.8222 245° Southwest 255 293 11,000  Level Indianapolis Center
23:06 39.3803 -83.9036 242° Southwest 255 293 11,000  Level Indianapolis Center
23:07 39.3450 -83.9856 241° Southwest 256 295 11,000 -660 Level Indianapolis Center
23:08 39.3117 -84.0633 241° Southwest 247 284 9,700 -960 Descending Indianapolis Center
23:09 39.2761 -84.1333 237° Southwest 232 267 9,100 -840 Descending Indianapolis Center
23:10 39.2364 -84.2008 233° Southwest 234 269 8,000 -1,320 Descending Indianapolis Center
23:11 39.2069 -84.2708 242° Southwest 227 261 6,500 -1,380 Descending Indianapolis Center
23:12 39.2044 -84.3517 268° West 225 259 5,200 -780 Descending Indianapolis Center
23:13 39.1978 -84.4272 264° West 218 251 5,000 -240 Descending Indianapolis Center
23:14 39.1897 -84.5022 262° West 213 245 4,800 -480 Descending Indianapolis Center
23:15 39.1806 -84.5794 261° West 212 244 4,100 -960 Descending Indianapolis Center
23:17 39.1500 -84.6667 246° West 130 150 2,400 -840 Descending Cincinnati TRACON
23:18 39.1167 -84.6833 201° Southwest 128 147 2,000 -600 Descending Cincinnati TRACON
23:19 39.0833 -84.6833 180° South 132 152 1,300 -720 Descending Cincinnati TRACON
23:21 39.0488 -84.6678 247° West  Level Estimated